Terminal Aerodrome Forecast
Issued by NWS

Home | Current Version | Previous Version | Text Only | Print | Product List | Glossary On
Versions: 1 2 3 4 5 6 7 8 9 10 11 12
000
FTUS45 KRIW 191138
TAFRKS
TAF
KRKS 191138Z 1912/2012 24011KT P6SM SCT040 BKN090
     FM191500 28014G20KT P6SM VCSH BKN050
     FM192000 27022G32KT P6SM VCSH SCT040 BKN060
     FM200100 27015KT P6SM SCT050 BKN070
     FM200400 26010KT P6SM SCT070=

USA.gov is the U.S. government's official web portal to all federal, state and local government web resources and services.